This is the latest recevied weather packets stored in our database for station/object K1WJY. If no packets are shown the sender has not sent any weather packets the latest 10 day(s).
| Time | Temp. | Humidity | Pressure | Rain* | Wind** | Luminosity | Snow |
|---|---|---|---|---|---|---|---|
| 1777144767 | 15° C | 44% | 1017 hPa | 0 mm | - | 551 W/m² | - |
| 1777144460 | 15.56° C | 44% | 1017 hPa | 0 mm | - | 559 W/m² | - |
| 1777144158 | 15° C | 44% | 1017 hPa | 0 mm | - | 570 W/m² | - |
| 1777143853 | 15° C | 44% | 1017 hPa | 0 mm | - | 580 W/m² | - |
| 1777143551 | 15° C | 43% | 1017.4 hPa | 0 mm | - | 592 W/m² | - |
| 1777143251 | 15° C | 45% | 1017.2 hPa | 0 mm | - | 602 W/m² | - |
| 1777142947 | 14.44° C | 45% | 1017.1 hPa | 0 mm | - | 609 W/m² | - |
| 1777142643 | 14.44° C | 45% | 1017.2 hPa | 0 mm | - | 619 W/m² | - |
| 1777142341 | 15° C | 44% | 1017.2 hPa | 0 mm | - | 631 W/m² | - |
| 1777142041 | 14.44° C | 46% | 1017.4 hPa | 0 mm | - | 631 W/m² | - |
| 1777141737 | 14.44° C | 46% | 1017.5 hPa | 0 mm | - | 636 W/m² | - |
| 1777141435 | 15° C | 44% | 1017.5 hPa | 0 mm | - | 645 W/m² | - |
| 1777141132 | 15.56° C | 44% | 1017.6 hPa | 0 mm | - | 649 W/m² | - |
| 1777140829 | 15° C | 47% | 1017.3 hPa | 0 mm | - | 652 W/m² | - |
| 1777140525 | 15° C | 47% | 1017.5 hPa | 0 mm | - | 652 W/m² | - |
| 1777140223 | 14.44° C | 47% | 1017.5 hPa | 0 mm | - | 651 W/m² | - |
| 1777139920 | 14.44° C | 48% | 1017.5 hPa | 0 mm | - | 664 W/m² | - |
| 1777139617 | 13.89° C | 50% | 1017.7 hPa | 0 mm | - | 669 W/m² | - |
| 1777139317 | 13.89° C | 49% | 1017.8 hPa | 0 mm | - | 672 W/m² | - |
| 1777139014 | 13.33° C | 49% | 1017.8 hPa | 0 mm | - | 671 W/m² | - |
| 1777138711 | 13.89° C | 48% | 1017.9 hPa | 0 mm | - | 675 W/m² | - |
| 1777138406 | 12.78° C | 50% | 1018 hPa | 0 mm | - | 675 W/m² | - |
| 1777138102 | 13.33° C | 51% | 1018 hPa | 0 mm | - | 681 W/m² | - |
| 1777137799 | 13.89° C | 49% | 1018.2 hPa | 0 mm | - | 679 W/m² | - |
| 1777137495 | 13.33° C | 50% | 1018.1 hPa | 0 mm | - | 685 W/m² | - |
* Rain latest hour (hover to see other rain measurements)
** Current wind speed in m/s (hover to see current wind gust speed)